createdAt,value
2022-08-02T00:01:18.561Z,2.70
2022-08-02T00:03:45.109Z,2.73
2022-08-02T00:06:11.804Z,2.83
2022-08-02T00:08:38.316Z,2.70
2022-08-02T00:11:04.785Z,2.90
2022-08-02T00:13:31.407Z,2.87
2022-08-02T00:15:58.047Z,2.33
2022-08-02T00:18:24.636Z,2.73
2022-08-02T00:20:51.243Z,2.83
2022-08-02T00:23:17.800Z,2.80
2022-08-02T00:25:54.804Z,2.50
2022-08-02T00:28:27.152Z,2.80
2022-08-02T00:30:54.626Z,2.30
2022-08-02T00:34:05.613Z,3.03
2022-08-02T00:36:07.741Z,2.47
2022-08-02T00:38:34.334Z,2.63
2022-08-02T00:41:00.800Z,2.87
2022-08-02T00:43:27.401Z,3.10
2022-08-02T00:46:02.210Z,2.67
2022-08-02T00:48:30.584Z,2.77
2022-08-02T00:50:58.958Z,2.50
2022-08-02T00:53:25.698Z,2.73
2022-08-02T00:55:52.368Z,2.40
2022-08-02T00:58:19.178Z,2.43
2022-08-02T01:00:45.722Z,2.70
2022-08-02T01:03:12.244Z,2.90
2022-08-02T01:06:02.415Z,2.57
2022-08-02T01:08:29.669Z,2.20
2022-08-02T01:10:58.513Z,2.80
2022-08-02T01:13:25.682Z,2.50
2022-08-02T01:16:04.744Z,2.43
2022-08-02T01:18:43.202Z,2.20
2022-08-02T01:21:40.802Z,2.40
2022-08-02T01:24:22.736Z,2.80
2022-08-02T01:26:59.964Z,2.83
2022-08-02T01:29:31.099Z,2.80
2022-08-02T01:32:03.414Z,2.70
2022-08-02T01:34:36.028Z,2.80
2022-08-02T01:37:18.181Z,2.40
2022-08-02T01:39:46.300Z,2.40
2022-08-02T01:42:14.039Z,2.23
2022-08-02T01:44:45.284Z,2.73
2022-08-02T01:47:17.940Z,2.50
2022-08-02T01:49:50.965Z,2.60
2022-08-02T01:52:22.335Z,2.67
2022-08-02T01:55:00.044Z,2.80
2022-08-02T01:57:27.942Z,2.10
2022-08-02T01:59:56.556Z,2.60
2022-08-02T02:02:23.652Z,2.33
2022-08-02T02:04:52.037Z,2.43
2022-08-02T02:07:20.691Z,2.67
2022-08-02T02:09:50.934Z,2.20
2022-08-02T02:12:19.933Z,2.47
2022-08-02T02:14:49.321Z,2.70
2022-08-02T02:18:11.293Z,2.30
2022-08-02T02:20:08.604Z,2.57
2022-08-02T02:22:36.143Z,2.33
2022-08-02T02:25:02.785Z,3.10
2022-08-02T02:27:33.980Z,2.93
2022-08-02T02:30:05.210Z,3.10
2022-08-02T02:32:32.433Z,2.70
2022-08-02T02:34:59.768Z,2.70
2022-08-02T02:37:28.280Z,4.00
2022-08-02T02:39:56.543Z,3.97
2022-08-02T02:42:31.201Z,5.30
2022-08-02T02:44:59.535Z,4.90
2022-08-02T02:47:40.835Z,4.63
2022-08-02T02:50:09.774Z,3.80
2022-08-02T02:52:38.767Z,3.53
2022-08-02T02:55:06.166Z,3.23
2022-08-02T02:57:33.546Z,3.33
2022-08-02T03:00:00.261Z,3.37
2022-08-02T03:02:26.960Z,3.10
2022-08-02T03:04:55.856Z,3.10
2022-08-02T03:07:24.259Z,2.60
2022-08-02T03:09:54.181Z,4.00
2022-08-02T03:12:24.882Z,5.40
2022-08-02T03:14:55.793Z,4.97
2022-08-02T03:17:22.437Z,4.90
2022-08-02T03:19:48.934Z,4.23
2022-08-02T03:22:15.614Z,5.20
2022-08-02T03:24:42.151Z,5.33
2022-08-02T03:27:08.658Z,3.57
2022-08-02T03:29:35.300Z,4.17
2022-08-02T03:32:01.918Z,4.33
2022-08-02T03:34:28.481Z,4.80
2022-08-02T03:36:56.094Z,4.30
2022-08-02T03:39:23.064Z,3.33
2022-08-02T03:41:49.918Z,3.80
2022-08-02T03:44:16.884Z,4.20
2022-08-02T03:46:43.478Z,4.73
2022-08-02T03:49:10.918Z,3.90
2022-08-02T03:51:37.572Z,4.27
2022-08-02T03:54:04.540Z,3.33
2022-08-02T03:56:32.160Z,3.13
2022-08-02T03:59:12.944Z,3.67
2022-08-02T04:01:40.196Z,3.50
2022-08-02T04:04:07.605Z,3.30
2022-08-02T04:06:34.264Z,3.13
2022-08-02T04:09:01.392Z,3.30
2022-08-02T04:11:33.975Z,2.90
2022-08-02T04:14:11.319Z,3.60
2022-08-02T04:16:38.700Z,3.97
2022-08-02T04:19:06.178Z,3.10
2022-08-02T04:21:41.382Z,3.77
2022-08-02T04:24:21.019Z,3.00
2022-08-02T04:26:53.600Z,3.43
2022-08-02T04:29:20.865Z,3.20
2022-08-02T04:31:47.916Z,3.50
2022-08-02T04:34:15.338Z,3.40
2022-08-02T04:36:43.083Z,3.40
2022-08-02T04:39:10.156Z,3.60
2022-08-02T04:41:44.761Z,3.50
2022-08-02T04:44:12.171Z,3.30
2022-08-02T04:46:39.535Z,3.23
2022-08-02T04:49:06.617Z,3.77
2022-08-02T04:51:37.936Z,3.93
2022-08-02T04:54:09.466Z,2.87
2022-08-02T04:56:38.073Z,3.50
2022-08-02T04:59:05.211Z,3.57
2022-08-02T05:01:32.284Z,3.90
2022-08-02T05:03:59.609Z,3.77
2022-08-02T05:06:26.248Z,4.17
2022-08-02T05:08:53.610Z,4.00
2022-08-02T05:11:21.899Z,4.00
2022-08-02T05:13:58.575Z,3.80
2022-08-02T05:16:30.942Z,4.10
2022-08-02T05:18:59.423Z,3.90
2022-08-02T05:21:26.071Z,4.27
2022-08-02T05:23:52.562Z,3.93
2022-08-02T05:26:19.211Z,4.43
2022-08-02T05:28:45.763Z,4.20
2022-08-02T05:31:13.081Z,3.90
2022-08-02T05:33:40.477Z,4.30
2022-08-02T05:36:09.244Z,4.10
2022-08-02T05:38:37.233Z,4.27
2022-08-02T05:41:04.741Z,3.93
2022-08-02T05:43:31.244Z,4.33
2022-08-02T05:45:57.853Z,4.30
2022-08-02T05:48:30.837Z,4.20
2022-08-02T05:51:06.423Z,4.33
2022-08-02T05:53:35.954Z,4.53
2022-08-02T05:56:24.658Z,4.63
2022-08-02T05:59:03.876Z,4.70
2022-08-02T06:01:38.225Z,4.20
2022-08-02T06:04:07.389Z,4.93
2022-08-02T06:06:35.130Z,5.00
2022-08-02T06:09:15.817Z,5.23
2022-08-02T06:12:01.658Z,5.23
2022-08-02T06:14:33.147Z,5.40
2022-08-02T06:17:03.864Z,5.40
2022-08-02T06:19:31.776Z,5.40
2022-08-02T06:22:35.815Z,5.17
2022-08-02T06:25:04.402Z,5.53
2022-08-02T06:27:31.293Z,5.27
2022-08-02T06:29:58.000Z,6.20
2022-08-02T06:32:26.766Z,5.83
2022-08-02T06:34:53.426Z,5.77
2022-08-02T06:37:29.738Z,5.60
2022-08-02T06:40:11.122Z,5.33
2022-08-02T06:42:50.277Z,5.17
2022-08-02T06:45:17.412Z,5.03
2022-08-02T06:47:44.378Z,4.87
2022-08-02T06:50:11.316Z,5.37
2022-08-02T06:52:38.166Z,5.00
2022-08-02T06:55:05.709Z,5.13
2022-08-02T06:57:32.567Z,4.40
2022-08-02T07:00:01.783Z,4.83
2022-08-02T07:02:29.804Z,4.83
2022-08-02T07:04:56.430Z,4.83
2022-08-02T07:07:23.185Z,4.50
2022-08-02T07:09:56.829Z,4.37
2022-08-02T07:12:31.661Z,4.50
2022-08-02T07:15:03.064Z,3.70
2022-08-02T07:17:30.040Z,4.17
2022-08-02T07:19:59.942Z,4.03
2022-08-02T07:22:27.598Z,3.47
2022-08-02T07:24:56.055Z,3.63
2022-08-02T07:27:22.624Z,3.50
2022-08-02T07:29:49.318Z,3.27
2022-08-02T07:32:21.400Z,3.00
2022-08-02T07:34:51.320Z,3.43
2022-08-02T07:37:53.095Z,2.87
2022-08-02T07:40:20.646Z,2.67
2022-08-02T07:42:56.461Z,2.60
2022-08-02T07:45:26.752Z,2.90
2022-08-02T07:47:53.391Z,2.97
2022-08-02T07:50:21.327Z,2.97
2022-08-02T07:52:48.101Z,3.03
2022-08-02T07:55:15.853Z,5.73
2022-08-02T07:57:46.080Z,4.47
2022-08-02T08:00:14.061Z,2.97
2022-08-02T08:02:40.675Z,2.47
2022-08-02T08:05:08.073Z,2.67
2022-08-02T08:07:35.019Z,2.40
2022-08-02T08:10:02.333Z,2.57
2022-08-02T08:12:29.008Z,2.90
2022-08-02T08:14:55.532Z,4.10
2022-08-02T08:17:22.138Z,4.07
2022-08-02T08:19:51.958Z,2.77
2022-08-02T08:22:20.463Z,2.97
2022-08-02T08:24:48.977Z,2.30
2022-08-02T08:27:16.603Z,2.37
2022-08-02T08:29:43.934Z,2.20
2022-08-02T08:32:16.322Z,3.30
2022-08-02T08:34:43.972Z,2.30
2022-08-02T08:37:17.574Z,2.00
2022-08-02T08:39:58.512Z,1.80
2022-08-02T08:42:30.543Z,2.40
2022-08-02T08:44:57.902Z,2.60
2022-08-02T08:47:35.394Z,2.40
2022-08-02T08:50:05.556Z,2.50
2022-08-02T08:52:36.629Z,1.90
2022-08-02T08:55:09.439Z,2.00
2022-08-02T08:57:40.401Z,2.00
2022-08-02T09:00:07.720Z,2.30
2022-08-02T09:02:35.291Z,2.20
2022-08-02T09:05:02.102Z,2.10
2022-08-02T09:07:28.780Z,1.93
2022-08-02T09:09:55.349Z,2.20
2022-08-02T09:12:22.439Z,2.07
2022-08-02T09:14:50.073Z,2.17
2022-08-02T09:17:17.909Z,1.90
2022-08-02T09:19:45.890Z,2.00
2022-08-02T09:22:14.923Z,2.23
2022-08-02T09:24:50.080Z,1.87
2022-08-02T09:27:18.871Z,1.90
2022-08-02T09:30:12.209Z,2.10
2022-08-02T09:32:48.433Z,1.90
2022-08-02T09:36:06.769Z,2.07
2022-08-02T09:38:18.622Z,1.70
2022-08-02T09:40:45.356Z,1.90
2022-08-02T09:43:11.941Z,1.90
2022-08-02T09:45:38.760Z,2.30
2022-08-02T09:48:11.849Z,2.23
2022-08-02T09:50:40.238Z,2.00
2022-08-02T09:53:13.002Z,2.50
2022-08-02T09:55:41.056Z,1.80
2022-08-02T09:58:20.098Z,1.93
2022-08-02T10:00:59.055Z,2.20
2022-08-02T10:03:35.143Z,2.17
2022-08-02T10:06:04.438Z,2.40
2022-08-02T10:08:33.084Z,1.90
2022-08-02T10:11:03.405Z,2.33
2022-08-02T10:13:35.244Z,2.13
2022-08-02T10:16:03.023Z,2.40
2022-08-02T10:18:45.628Z,2.20
2022-08-02T10:21:20.311Z,2.30
2022-08-02T10:23:48.669Z,1.97
2022-08-02T10:26:18.871Z,2.17
2022-08-02T10:28:48.049Z,2.07
2022-08-02T10:31:17.414Z,2.20
2022-08-02T10:33:46.433Z,2.27
2022-08-02T10:36:16.555Z,1.90
2022-08-02T10:38:44.592Z,2.20
2022-08-02T10:41:11.674Z,2.47
2022-08-02T10:43:38.237Z,2.30
2022-08-02T10:46:23.273Z,2.20
2022-08-02T10:52:00.500Z,2.37
2022-08-02T10:54:38.501Z,1.90
2022-08-02T10:57:24.918Z,2.60
2022-08-02T10:59:56.589Z,2.40
2022-08-02T11:02:43.800Z,2.37
2022-08-02T11:05:14.887Z,2.63
2022-08-02T11:07:47.627Z,1.97
2022-08-02T11:10:34.273Z,2.30
2022-08-02T11:13:11.801Z,2.07
2022-08-02T11:15:57.105Z,2.67
2022-08-02T11:18:44.922Z,2.57
2022-08-02T11:21:26.225Z,2.27
2022-08-02T11:23:53.105Z,2.47
2022-08-02T11:26:32.081Z,2.53
2022-08-02T11:29:03.431Z,2.60
2022-08-02T11:31:35.225Z,2.20
2022-08-02T11:34:04.438Z,2.33
2022-08-02T11:36:33.145Z,2.13
2022-08-02T11:39:15.917Z,2.43
2022-08-02T11:41:47.035Z,2.93
2022-08-02T11:44:14.188Z,2.80
2022-08-02T11:46:41.135Z,2.47
2022-08-02T11:49:18.531Z,2.17
2022-08-02T11:51:54.514Z,2.33
2022-08-02T11:54:35.251Z,2.83
2022-08-02T11:57:18.672Z,2.40
2022-08-02T11:59:50.858Z,2.40
2022-08-02T12:02:18.623Z,2.43
2022-08-02T12:05:02.068Z,2.60
2022-08-02T12:07:35.249Z,3.07
2022-08-02T12:10:18.822Z,2.70
2022-08-02T12:12:59.850Z,3.07
2022-08-02T12:15:41.959Z,2.60
2022-08-02T12:18:40.516Z,2.77
2022-08-02T12:21:27.392Z,2.70
2022-08-02T12:23:57.167Z,8.00
2022-08-02T12:26:28.326Z,2.80
2022-08-02T12:28:57.490Z,2.60
2022-08-02T12:31:57.104Z,2.40
2022-08-02T12:34:31.863Z,2.57
2022-08-02T12:37:10.197Z,2.37
2022-08-02T12:39:41.133Z,2.20
2022-08-02T12:42:11.281Z,2.70
2022-08-02T12:44:44.472Z,2.30
2022-08-02T12:47:11.044Z,2.27
2022-08-02T12:49:37.985Z,2.27
2022-08-02T12:52:20.181Z,2.07
2022-08-02T12:54:48.963Z,2.20
2022-08-02T12:57:17.996Z,2.00
2022-08-02T12:59:52.192Z,2.30
2022-08-02T13:02:19.933Z,2.00
2022-08-02T13:04:49.084Z,1.83
2022-08-02T13:07:17.659Z,1.90
2022-08-02T13:09:48.404Z,2.23
2022-08-02T13:12:15.867Z,1.87
2022-08-02T13:14:43.198Z,1.80
2022-08-02T13:17:10.407Z,2.00
2022-08-02T13:19:38.378Z,2.20
2022-08-02T13:22:05.565Z,2.00
2022-08-02T13:24:39.657Z,1.90
2022-08-02T13:27:21.567Z,1.60
2022-08-02T13:29:49.816Z,1.73
2022-08-02T13:32:17.056Z,2.10
2022-08-02T13:34:44.043Z,2.00
2022-08-02T13:37:10.885Z,2.00
2022-08-02T13:39:37.441Z,2.10
2022-08-02T13:42:04.253Z,1.83
2022-08-02T13:44:32.874Z,1.50
2022-08-02T13:46:59.441Z,2.08
2022-08-02T13:49:50.148Z,1.85
2022-08-02T13:52:13.215Z,1.90
2022-08-02T13:54:40.030Z,2.10
2022-08-02T13:57:06.683Z,1.90
2022-08-02T13:59:58.247Z,2.13
2022-08-02T14:02:19.785Z,1.80
2022-08-02T14:04:46.445Z,1.70
2022-08-02T14:07:13.053Z,1.70
2022-08-02T14:09:43.104Z,1.90
2022-08-02T14:12:10.827Z,1.63
2022-08-02T14:14:37.884Z,1.92
2022-08-02T14:17:04.563Z,1.70
2022-08-02T14:19:31.256Z,1.85
2022-08-02T14:22:11.169Z,2.15
2022-08-02T14:24:39.711Z,1.80
2022-08-02T14:27:06.267Z,1.88
2022-08-02T14:29:33.437Z,2.03
2022-08-02T14:32:00.107Z,1.58
2022-08-02T14:34:27.360Z,1.83
2022-08-02T14:36:54.995Z,1.80
2022-08-02T14:39:21.503Z,2.22
2022-08-02T14:41:59.547Z,1.90
2022-08-02T14:44:28.507Z,1.88
2022-08-02T14:46:55.477Z,1.75
2022-08-02T14:49:25.872Z,1.60
2022-08-02T14:51:56.322Z,1.70
2022-08-02T14:54:27.748Z,1.70
2022-08-02T14:56:55.735Z,1.90
2022-08-02T14:59:22.410Z,1.92
2022-08-02T15:01:48.997Z,1.98
2022-08-02T15:04:15.535Z,1.80
2022-08-02T15:06:42.160Z,1.67
2022-08-02T15:09:08.708Z,1.90
2022-08-02T15:11:47.833Z,1.70
2022-08-02T15:14:17.075Z,1.90
2022-08-02T15:16:56.468Z,2.38
2022-08-02T15:19:25.840Z,1.90
2022-08-02T15:22:03.185Z,1.95
2022-08-02T15:24:30.074Z,1.65
2022-08-02T15:26:57.234Z,2.17
2022-08-02T15:29:23.865Z,1.70
2022-08-02T15:31:50.385Z,1.80
2022-08-02T15:34:18.860Z,2.10
2022-08-02T15:36:45.562Z,1.58
2022-08-02T15:39:12.376Z,1.80
2022-08-02T15:41:39.098Z,1.88
2022-08-02T15:44:08.645Z,2.03
2022-08-02T15:46:36.644Z,1.83
2022-08-02T15:49:03.280Z,2.10
2022-08-02T15:51:29.864Z,2.00
2022-08-02T15:53:56.474Z,2.25
2022-08-02T15:56:24.460Z,2.35
2022-08-02T15:58:56.778Z,2.10
2022-08-02T16:01:24.203Z,1.73
2022-08-02T16:03:51.043Z,1.92
2022-08-02T16:06:17.763Z,2.08
2022-08-02T16:08:45.252Z,2.13
2022-08-02T16:11:20.776Z,1.75
2022-08-02T16:13:53.536Z,1.85
2022-08-02T16:16:29.352Z,1.70
2022-08-02T16:18:56.464Z,1.95
2022-08-02T16:21:23.553Z,1.90
2022-08-02T16:24:01.950Z,1.77
2022-08-02T16:26:31.530Z,2.15
2022-08-02T16:28:59.136Z,1.75
2022-08-02T16:31:25.789Z,1.80
2022-08-02T16:33:56.737Z,1.90
2022-08-02T16:36:24.879Z,1.65
2022-08-02T16:38:52.745Z,1.80
2022-08-02T16:41:19.523Z,1.80
2022-08-02T16:43:46.322Z,1.80
2022-08-02T16:46:12.969Z,1.70
2022-08-02T16:48:39.744Z,1.90
2022-08-02T16:51:13.560Z,1.80
2022-08-02T16:56:29.135Z,1.52
2022-08-02T16:58:59.460Z,1.50
2022-08-02T17:01:27.476Z,1.63
2022-08-02T17:03:55.903Z,1.55
2022-08-02T17:06:26.366Z,1.50
2022-08-02T17:08:56.409Z,1.70
2022-08-02T17:11:23.873Z,1.80
2022-08-02T17:13:51.502Z,1.73
2022-08-02T17:16:20.294Z,1.80
2022-08-02T17:18:53.124Z,1.60
2022-08-02T17:21:20.023Z,1.52
2022-08-02T17:24:04.638Z,1.52
2022-08-02T17:26:33.629Z,1.50
2022-08-02T17:29:17.993Z,1.67
2022-08-02T17:32:04.854Z,1.55
2022-08-02T17:34:33.546Z,1.40
2022-08-02T17:37:00.274Z,1.70
2022-08-02T17:39:33.549Z,1.40
2022-08-02T17:42:02.869Z,1.65
2022-08-02T17:44:37.081Z,1.60
2022-08-02T17:47:07.364Z,1.60
2022-08-02T17:49:42.718Z,1.70
2022-08-02T17:52:48.291Z,1.65
2022-08-02T17:54:58.022Z,1.40
2022-08-02T17:57:24.726Z,1.42
2022-08-02T18:00:12.458Z,1.52
2022-08-02T18:02:39.128Z,1.52
2022-08-02T18:05:06.192Z,1.48
2022-08-02T18:07:52.996Z,1.60
2022-08-02T18:10:23.453Z,1.60
2022-08-02T18:12:53.617Z,1.58
2022-08-02T18:15:23.055Z,1.35
2022-08-02T18:17:49.654Z,1.48
2022-08-02T18:20:17.145Z,4.30
2022-08-02T18:22:44.911Z,3.22
2022-08-02T18:25:36.347Z,2.72
2022-08-02T18:27:58.448Z,1.50
2022-08-02T18:30:28.582Z,1.80
2022-08-02T18:33:54.742Z,1.92
2022-08-02T18:35:43.663Z,1.65
2022-08-02T18:38:11.721Z,2.00
2022-08-02T18:40:38.835Z,1.80
2022-08-02T18:43:07.202Z,2.47
2022-08-02T18:45:42.075Z,1.80
2022-08-02T18:48:21.818Z,2.15
2022-08-02T18:50:48.593Z,1.88
2022-08-02T18:53:39.536Z,2.03
2022-08-02T18:56:06.802Z,1.83
2022-08-02T18:58:35.088Z,1.90
2022-08-02T19:01:14.717Z,2.28
2022-08-02T19:03:49.337Z,2.35
2022-08-02T19:06:19.742Z,1.85
2022-08-02T19:11:35.063Z,2.22
2022-08-02T19:14:02.790Z,2.08
2022-08-02T19:16:36.994Z,2.47
2022-08-02T19:19:19.438Z,2.63
2022-08-02T19:22:18.296Z,2.00
2022-08-02T19:24:33.147Z,1.90
2022-08-02T19:27:04.761Z,2.03
2022-08-02T19:29:42.774Z,1.83
2022-08-02T19:32:40.573Z,1.90
2022-08-02T19:35:24.129Z,1.80
2022-08-02T19:37:52.419Z,1.90
2022-08-02T19:40:24.058Z,2.23
2022-08-02T19:44:23.979Z,2.20
2022-08-02T19:45:49.144Z,2.23
2022-08-02T19:48:18.222Z,2.40
2022-08-02T19:50:53.729Z,1.98
2022-08-02T19:53:29.071Z,2.27
2022-08-02T19:56:13.105Z,2.13
2022-08-02T19:58:47.612Z,1.80
2022-08-02T20:01:17.321Z,2.50
2022-08-02T20:03:52.387Z,2.20
2022-08-02T20:06:20.074Z,2.50
2022-08-02T20:08:57.119Z,2.43
2022-08-02T20:11:25.619Z,3.17
2022-08-02T20:13:53.633Z,3.20
2022-08-02T20:16:27.324Z,2.67
2022-08-02T20:18:55.217Z,2.90
2022-08-02T20:21:34.061Z,3.10
2022-08-02T20:24:04.794Z,2.87
2022-08-02T20:26:31.596Z,3.70
2022-08-02T20:29:02.768Z,4.70
2022-08-02T20:31:29.828Z,3.60
2022-08-02T20:33:56.877Z,3.17
2022-08-02T20:36:24.729Z,3.30
2022-08-02T20:38:51.251Z,3.17
2022-08-02T20:41:21.798Z,2.70
2022-08-02T20:43:49.129Z,2.70
2022-08-02T20:46:16.352Z,3.10
2022-08-02T20:48:44.854Z,2.70
2022-08-02T20:51:12.571Z,3.27
2022-08-02T20:53:54.767Z,2.70
2022-08-02T20:56:26.226Z,3.10
2022-08-02T20:58:53.006Z,3.03
2022-08-02T21:01:21.269Z,3.00
2022-08-02T21:03:55.947Z,3.20
2022-08-02T21:06:25.179Z,3.50
2022-08-02T21:08:55.089Z,3.13
2022-08-02T21:11:25.298Z,2.97
2022-08-02T21:14:05.512Z,3.27
2022-08-02T21:16:36.100Z,3.10
2022-08-02T21:19:03.140Z,3.10
2022-08-02T21:21:36.148Z,3.20
2022-08-02T21:24:03.036Z,2.77
2022-08-02T21:26:31.010Z,3.10
2022-08-02T21:31:46.829Z,2.80
2022-08-02T21:34:22.403Z,2.50
2022-08-02T21:36:53.913Z,2.80
2022-08-02T21:39:20.702Z,2.73
2022-08-02T21:41:47.538Z,2.90
2022-08-02T21:44:18.804Z,2.83
2022-08-02T21:46:48.976Z,3.50
2022-08-02T21:49:17.033Z,3.00
2022-08-02T21:51:43.731Z,2.90
2022-08-02T21:57:06.209Z,3.13
2022-08-02T21:59:35.048Z,2.80
2022-08-02T22:02:01.739Z,2.90
2022-08-02T22:04:28.379Z,3.00
2022-08-02T22:06:56.287Z,3.27
2022-08-02T22:09:44.380Z,2.80
2022-08-02T22:12:16.453Z,3.30
2022-08-02T22:14:49.685Z,3.00
2022-08-02T22:17:21.151Z,3.03
2022-08-02T22:20:08.278Z,2.97
2022-08-02T22:22:34.984Z,3.17
2022-08-02T22:25:01.557Z,2.93
2022-08-02T22:28:13.345Z,2.73
2022-08-02T22:30:17.438Z,2.80
2022-08-02T22:33:15.249Z,2.67
2022-08-02T22:35:51.137Z,2.90
2022-08-02T22:38:19.618Z,2.93
2022-08-02T22:40:48.742Z,2.90
2022-08-02T22:43:22.930Z,3.13
2022-08-02T22:45:50.116Z,3.00
2022-08-02T22:48:16.877Z,2.60
2022-08-02T22:50:43.675Z,2.70
2022-08-02T22:53:10.429Z,2.93
2022-08-02T22:55:41.532Z,3.07
2022-08-02T22:58:09.159Z,2.87
2022-08-02T22:58:50.583Z,1.65
2022-08-02T22:58:57.318Z,2.90
2022-08-02T22:59:02.909Z,2.93
2022-08-02T22:59:03.802Z,3.37
2022-08-02T23:00:35.799Z,3.23
2022-08-02T23:03:02.946Z,3.20
2022-08-02T23:05:33.148Z,3.00
2022-08-02T23:07:59.812Z,3.50
2022-08-02T23:10:26.517Z,3.20
2022-08-02T23:12:56.347Z,3.43
2022-08-02T23:15:23.601Z,3.00
2022-08-02T23:18:08.930Z,3.03
2022-08-02T23:20:35.545Z,2.70
2022-08-02T23:23:02.330Z,3.43
2022-08-02T23:25:28.958Z,3.17
2022-08-02T23:27:55.755Z,2.80
2022-08-02T23:30:23.058Z,2.90
2022-08-02T23:32:49.758Z,2.90
2022-08-02T23:35:17.214Z,3.03
2022-08-02T23:37:59.269Z,3.10
2022-08-02T23:40:38.871Z,3.30
2022-08-02T23:43:14.142Z,3.00
2022-08-02T23:45:45.764Z,3.30
2022-08-02T23:48:12.440Z,2.80
2022-08-02T23:50:39.194Z,2.93
2022-08-02T23:53:05.832Z,3.37
2022-08-02T23:55:32.381Z,2.80
2022-08-02T23:57:58.990Z,3.30
